Time;durP1;ratioP1;P1;durP2;ratioP2;P2;SDS_P1;SDS_P2;PMS_P1;PMS_P2;Temp;Humidity;BMP_temperature;BMP_pressure;BME280_temperature;BME280_humidity;BME280_pressure;Samples;Min_cycle;Max_cycle;Signal;HPM_P1;HPM_P2
2021/06/14 00:00:32;;;;;;;9.90;4.97;;;12.50;99.90;;;13.97;75.18;101419.91;6188193;23;20057;-84
2021/06/14 00:02:57;;;;;;;8.70;4.18;;;12.50;99.90;;;14.03;75.34;101417.66;6189670;23;20020;-83
2021/06/14 00:05:35;;;;;;;8.57;5.03;;;12.60;99.90;;;14.10;75.04;101415.00;6164156;23;20008;-84
2021/06/14 00:08:05;;;;;;;5.75;4.32;;;12.60;99.90;;;14.19;74.31;101412.84;6188215;23;20020;-81
2021/06/14 00:10:33;;;;;;;9.40;4.78;;;12.60;99.90;;;14.20;74.26;101412.47;6166342;23;20017;-86
2021/06/14 00:13:01;;;;;;;6.72;4.30;;;12.70;99.90;;;14.19;74.67;101407.22;6190757;23;20001;-82
2021/06/14 00:15:27;;;;;;;7.53;4.40;;;12.60;99.90;;;14.20;74.70;101406.03;6190846;23;20005;-86
2021/06/14 00:17:57;;;;;;;6.57;3.80;;;12.60;99.90;;;14.21;74.01;101399.25;6190192;23;20494;-84
2021/06/14 00:20:24;;;;;;;9.13;4.20;;;12.70;99.90;;;14.20;74.10;101404.03;6213937;23;20039;-81
2021/06/14 00:22:53;;;;;;;8.70;4.22;;;12.70;99.90;;;14.16;74.29;101397.50;6190713;23;20036;-84
2021/06/14 00:25:27;;;;;;;8.57;4.18;;;12.60;99.90;;;14.11;74.56;101394.19;6188949;23;20336;-84
2021/06/14 00:27:55;;;;;;;7.97;4.63;;;12.50;99.90;;;14.03;75.24;101398.78;6190517;23;20016;-85
2021/06/14 00:30:42;;;;;;;6.57;4.10;;;12.50;99.90;;;13.99;75.05;101397.09;6190919;23;20363;-84
2021/06/14 00:33:12;;;;;;;9.30;4.57;;;12.50;99.90;;;13.94;75.40;101391.72;6188933;23;20009;-86
2021/06/14 00:35:38;;;;;;;7.47;4.88;;;12.40;99.90;;;13.89;75.65;101394.81;6189731;23;20335;-84
2021/06/14 00:38:08;;;;;;;10.95;5.25;;;12.30;99.90;;;13.80;76.41;101389.41;6188863;23;20084;-85
2021/06/14 00:40:35;;;;;;;7.85;4.57;;;12.20;99.90;;;13.71;76.63;101386.75;6190433;23;20386;-85
2021/06/14 00:43:04;;;;;;;10.48;4.40;;;12.20;99.90;;;13.65;76.68;101388.19;6203218;23;20020;-84
2021/06/14 00:45:34;;;;;;;10.63;4.72;;;12.10;99.90;;;13.62;76.78;101382.50;6208312;23;20446;-82
2021/06/14 00:48:04;;;;;;;8.68;4.10;;;12.00;99.90;;;13.57;76.98;101382.78;6209822;23;19993;-81
2021/06/14 00:51:01;;;;;;;6.93;4.65;;;12.00;99.90;;;13.52;77.58;101378.22;6205954;23;20016;-81
2021/06/14 00:53:38;;;;;;;7.18;4.00;;;11.90;99.90;;;13.46;77.06;101376.88;6207597;23;20532;-84
2021/06/14 00:56:12;;;;;;;10.57;5.10;;;11.90;99.90;;;13.41;77.76;101373.50;6190485;23;20005;-84
2021/06/14 00:58:41;;;;;;;7.53;4.00;;;11.80;99.90;;;13.34;77.81;101378.94;6189244;23;20005;-85
2021/06/14 01:01:09;;;;;;;7.95;4.20;;;11.80;99.90;;;13.28;78.11;101372.78;6187662;23;20016;-84
2021/06/14 01:03:36;;;;;;;11.23;5.13;;;11.70;99.90;;;13.30;78.39;101372.41;6187058;23;20036;-85
2021/06/14 01:06:08;;;;;;;10.80;4.90;;;11.70;99.90;;;13.24;78.27;101369.03;6189142;23;20510;-82
2021/06/14 01:08:56;;;;;;;8.93;4.63;;;11.70;99.90;;;13.19;78.68;101360.91;6188938;23;20009;-83
2021/06/14 01:11:52;;;;;;;11.82;5.07;;;11.70;99.90;;;13.22;78.70;101356.56;6184168;23;20017;-82
2021/06/14 01:15:16;;;;;;;8.93;4.72;;;11.60;99.90;;;13.18;78.57;101348.84;6161661;23;20431;-81
2021/06/14 01:17:59;;;;;;;14.93;6.38;;;11.60;99.90;;;13.09;79.23;101356.63;6164585;23;20044;-83
2021/06/14 01:21:25;;;;;;;15.82;6.80;;;11.50;99.90;;;13.02;79.41;101347.97;6163255;23;20080;-84
2021/06/14 01:24:40;;;;;;;17.50;6.90;;;11.40;99.90;;;12.94;79.72;101343.31;6079138;23;20065;-82
2021/06/14 01:27:11;;;;;;;12.10;5.28;;;11.40;99.90;;;12.82;79.94;101351.78;6164192;23;20009;-84
2021/06/14 01:29:40;;;;;;;10.15;5.80;;;11.30;99.90;;;12.71;80.04;101342.28;6145301;23;20010;-81
2021/06/14 01:32:09;;;;;;;11.13;5.28;;;11.20;99.90;;;12.63;80.20;101332.84;6154533;23;20045;-82
2021/06/14 01:34:40;;;;;;;13.32;5.38;;;11.10;99.90;;;12.60;80.45;101341.13;6154741;23;20327;-82
2021/06/14 01:37:09;;;;;;;9.77;5.25;;;11.00;99.90;;;12.59;81.01;101328.28;6154300;23;20029;-82
2021/06/14 01:39:40;;;;;;;8.05;4.55;;;11.10;99.90;;;12.58;81.26;101337.88;6133173;23;20011;-82
2021/06/14 01:42:08;;;;;;;9.07;5.10;;;11.00;99.90;;;12.56;81.48;101329.00;6155918;23;20009;-83
2021/06/14 01:44:37;;;;;;;10.95;4.75;;;11.00;99.90;;;12.51;81.63;101330.06;6134967;23;20002;-83
2021/06/14 01:47:08;;;;;;;8.30;4.85;;;11.00;99.90;;;12.48;81.61;101324.38;6155523;23;20013;-82
2021/06/14 01:49:36;;;;;;;8.30;4.93;;;10.90;99.90;;;12.42;82.08;101325.78;6155360;23;20006;-82
2021/06/14 01:52:03;;;;;;;10.48;5.03;;;10.90;99.90;;;12.38;82.33;101324.84;6131664;23;20016;-81
2021/06/14 01:54:29;;;;;;;8.20;5.75;;;10.80;99.90;;;12.30;83.15;101323.81;6133043;23;20025;-81
2021/06/14 01:56:59;;;;;;;7.03;4.35;;;10.80;99.90;;;12.22;83.13;101315.56;6131424;23;20026;-83
2021/06/14 01:59:35;;;;;;;8.55;4.75;;;10.70;99.90;;;12.20;82.94;101315.88;6155037;23;20404;-82
2021/06/14 02:02:06;;;;;;;9.00;5.40;;;10.70;99.90;;;12.21;83.44;101314.72;6133376;23;20002;-83
2021/06/14 02:04:44;;;;;;;10.75;4.82;;;10.70;99.90;;;12.26;83.68;101308.09;6131808;23;20085;-83
2021/06/14 02:07:12;;;;;;;7.93;4.82;;;10.70;99.90;;;12.23;83.59;101306.81;6134364;23;20332;-81
2021/06/14 02:09:38;;;;;;;10.15;5.45;;;10.70;99.90;;;12.19;83.38;101305.88;6133950;23;20009;-82
2021/06/14 02:12:08;;;;;;;9.95;5.40;;;10.70;99.90;;;12.20;83.75;101307.50;6157389;23;20040;-82
2021/06/14 02:14:39;;;;;;;9.95;5.57;;;10.60;99.90;;;12.21;84.11;101308.31;6135622;23;20006;-83
2021/06/14 02:17:13;;;;;;;11.43;5.07;;;10.60;99.90;;;12.17;83.85;101304.59;6136075;23;20002;-82
2021/06/14 02:19:46;;;;;;;8.55;4.88;;;10.60;99.90;;;12.12;84.14;101305.66;6136810;23;20110;-82
2021/06/14 02:22:15;;;;;;;9.05;4.95;;;10.60;99.90;;;12.09;84.00;101300.75;6136288;23;20006;-81
2021/06/14 02:24:42;;;;;;;8.48;6.03;;;10.50;99.90;;;12.03;84.10;101302.16;6140430;23;20013;-84
2021/06/14 02:27:14;;;;;;;12.25;6.07;;;10.50;99.90;;;12.01;83.70;101293.28;6162027;23;20020;-81
2021/06/14 02:29:40;;;;;;;9.77;5.13;;;10.50;99.90;;;11.95;84.04;101295.53;6137307;23;20053;-82
2021/06/14 02:32:08;;;;;;;9.32;5.47;;;10.50;99.90;;;11.90;84.59;101295.78;6131166;23;20006;-82
2021/06/14 02:34:37;;;;;;;8.13;5.53;;;10.40;99.90;;;11.89;84.23;101288.53;6133558;23;20066;-82
2021/06/14 02:37:06;;;;;;;8.65;4.60;;;10.30;99.90;;;11.87;84.34;101296.47;6157987;23;20068;-81
2021/06/14 02:39:34;;;;;;;8.27;4.93;;;10.40;99.90;;;11.85;85.10;101284.78;6158452;23;20064;-83
2021/06/14 02:42:03;;;;;;;8.32;5.35;;;10.30;99.90;;;11.84;84.85;101283.19;6159581;23;20017;-83
2021/06/14 02:44:31;;;;;;;10.90;5.57;;;10.40;99.90;;;11.89;85.02;101285.72;6162587;23;20017;-82
2021/06/14 02:47:07;;;;;;;9.82;4.80;;;10.40;99.90;;;11.90;84.74;101286.56;6168327;23;20081;-83
2021/06/14 02:49:35;;;;;;;10.93;5.18;;;10.30;99.90;;;11.90;85.23;101287.38;6147758;23;20016;-81
2021/06/14 02:52:09;;;;;;;6.28;4.50;;;10.40;99.90;;;11.90;84.87;101284.56;6155306;23;20010;-82
2021/06/14 02:55:17;;;;;;;;;;;;;;;;;;;;;
2021/06/14 02:57:57;;;;;;;9.90;5.35;;;10.40;99.90;;;11.91;84.84;101293.78;6130992;23;20026;-82
2021/06/14 03:00:32;;;;;;;11.45;5.75;;;10.30;99.90;;;11.86;85.23;101294.84;6155050;23;20029;-83
2021/06/14 03:03:07;;;;;;;11.05;5.65;;;10.40;99.90;;;11.84;85.10;101287.97;6158737;23;20099;-82
2021/06/14 03:05:36;;;;;;;10.20;5.85;;;10.30;99.90;;;11.80;85.34;101299.03;6152572;23;20071;-86
2021/06/14 03:08:03;;;;;;;11.05;5.38;;;10.30;99.90;;;11.77;85.26;101282.13;6132703;23;20057;-83
2021/06/14 03:10:33;;;;;;;13.02;6.25;;;10.20;99.90;;;11.72;85.12;101285.19;6154993;23;20010;-82
2021/06/14 03:13:03;;;;;;;11.10;6.13;;;10.20;99.90;;;11.63;85.34;101280.47;6154177;23;20014;-85
2021/06/14 03:15:33;;;;;;;10.43;5.75;;;10.10;99.90;;;11.61;85.54;101284.78;6154991;23;20014;-86
2021/06/14 03:18:00;;;;;;;10.30;5.20;;;10.10;99.90;;;11.58;85.42;101275.13;6135992;23;20002;-83
2021/06/14 03:20:28;;;;;;;13.73;6.47;;;10.10;99.90;;;11.57;85.63;101267.88;6162747;23;20013;-83
2021/06/14 03:22:54;;;;;;;13.73;5.68;;;10.10;99.90;;;11.56;85.70;101271.84;6133008;23;20434;-83
2021/06/14 03:25:22;;;;;;;12.88;5.75;;;10.10;99.90;;;11.59;85.88;101282.34;6161700;23;20091;-83
2021/06/14 03:27:52;;;;;;;10.18;6.13;;;10.00;99.90;;;11.63;86.15;101272.06;6161085;23;20010;-81
2021/06/14 03:30:24;;;;;;;10.85;5.32;;;10.10;99.90;;;11.68;85.92;101273.84;6159056;23;20012;-83
2021/06/14 03:32:53;;;;;;;18.77;5.55;;;10.10;99.90;;;11.69;85.86;101269.84;6159451;23;20017;-84
2021/06/14 03:35:23;;;;;;;21.38;5.35;;;10.10;99.90;;;11.68;86.23;101265.44;6136036;23;20085;-83
2021/06/14 03:37:50;;;;;;;13.95;5.85;;;10.10;99.90;;;11.68;85.96;101264.63;6137521;23;20409;-85
2021/06/14 03:40:26;;;;;;;13.68;5.95;;;10.20;99.90;;;11.70;86.52;101265.94;6156513;23;20013;-83
2021/06/14 03:43:02;;;;;;;;;;;10.10;99.90;;;11.73;86.59;101264.41;6130167;23;20340;-84
2021/06/14 03:45:29;;;;;;;16.40;6.68;;;10.20;99.90;;;11.78;86.32;101266.97;6130955;23;19909;-83
2021/06/14 03:47:57;;;;;;;14.93;5.95;;;10.20;99.90;;;11.84;86.39;101263.59;6130450;23;20034;-82
2021/06/14 03:50:24;;;;;;;10.70;5.68;;;10.30;99.90;;;11.90;85.80;101262.19;6153246;23;20401;-83
2021/06/14 03:52:50;;;;;;;9.52;4.72;;;10.30;99.90;;;11.91;86.13;101260.19;6127956;23;20010;-83
2021/06/14 03:55:17;;;;;;;11.88;5.72;;;10.30;99.90;;;11.93;85.84;101257.84;6129767;23;20034;-82
2021/06/14 03:57:43;;;;;;;8.52;5.20;;;10.30;99.90;;;11.92;85.68;101254.22;6128024;23;20101;-83
2021/06/14 04:00:15;;;;;;;11.07;5.80;;;10.30;99.90;;;11.97;85.83;101264.38;6130842;23;20007;-83
2021/06/14 04:02:42;;;;;;;12.85;5.82;;;10.40;99.90;;;12.02;85.94;101264.94;6154062;23;20010;-82
2021/06/14 04:05:12;;;;;;;11.68;5.20;;;10.50;99.90;;;12.05;85.68;101263.41;6154933;23;20038;-81
2021/06/14 04:07:38;;;;;;;10.05;4.85;;;10.50;99.90;;;12.06;86.18;101257.47;6130395;23;20065;-83
2021/06/14 04:10:08;;;;;;;7.88;4.90;;;10.50;99.90;;;12.09;85.70;101250.34;6154206;23;20456;-84
2021/06/14 04:12:35;;;;;;;10.15;5.05;;;10.50;99.90;;;12.08;85.89;101246.75;6131108;23;20012;-84
2021/06/14 04:15:02;;;;;;;11.80;5.72;;;10.50;99.90;;;12.11;85.85;101257.22;6131118;23;20034;-84
2021/06/14 04:17:28;;;;;;;10.60;4.68;;;10.50;99.90;;;12.14;86.04;101245.31;6130573;23;20030;-84
2021/06/14 04:19:54;;;;;;;11.02;5.60;;;10.50;99.90;;;12.23;86.02;101245.19;6105459;23;20427;-81
2021/06/14 04:22:20;;;;;;;11.27;5.80;;;10.60;99.90;;;12.30;85.56;101241.75;6106791;23;20010;-85
2021/06/14 04:24:46;;;;;;;13.60;6.45;;;10.70;99.90;;;12.39;85.51;101236.84;6108919;23;20025;-84
2021/06/14 04:27:13;;;;;;;11.77;6.00;;;10.80;99.90;;;12.46;85.34;101243.44;6133327;23;20017;-83
2021/06/14 04:29:39;;;;;;;15.10;6.22;;;10.80;99.90;;;12.59;85.34;101236.63;6133519;23;20017;-83
2021/06/14 04:32:06;;;;;;;10.02;4.53;;;10.90;99.90;;;12.82;84.75;101234.06;6134640;23;20058;-84
2021/06/14 04:34:32;;;;;;;10.13;5.75;;;11.20;99.90;;;13.13;84.10;101236.91;6110961;23;20401;-81
2021/06/14 04:36:58;;;;;;;11.18;5.57;;;11.40;99.90;;;13.48;83.26;101234.22;6136651;23;20012;-82
2021/06/14 04:39:24;;;;;;;15.02;6.72;;;11.70;99.90;;;13.84;82.34;101235.84;6133123;23;20159;-85
2021/06/14 04:41:50;;;;;;;7.40;5.20;;;12.00;99.90;;;14.14;81.48;101233.31;6132441;23;20185;-83
2021/06/14 04:44:16;;;;;;;10.10;5.45;;;12.30;99.90;;;14.41;80.97;101235.16;6132664;23;20013;-84
2021/06/14 04:46:42;;;;;;;11.52;5.18;;;12.50;99.90;;;14.66;78.54;101235.66;6132411;23;20093;-84
2021/06/14 04:49:09;;;;;;;9.32;4.97;;;12.70;99.90;;;14.92;77.40;101229.31;6108275;23;20013;-86
2021/06/14 04:51:35;;;;;;;11.98;4.68;;;13.00;99.90;;;15.18;76.36;101232.19;6132066;23;20016;-82
2021/06/14 04:54:01;;;;;;;11.68;4.85;;;13.20;99.90;;;15.39;76.41;101229.75;6131683;23;20013;-84
2021/06/14 04:56:27;;;;;;;12.43;4.93;;;13.50;99.90;;;15.66;75.03;101244.69;6132152;23;20010;-83
2021/06/14 04:58:54;;;;;;;11.63;5.47;;;13.70;99.90;;;15.90;73.66;101237.81;6107475;23;20061;-86
2021/06/14 05:01:20;;;;;;;12.27;4.53;;;13.90;99.90;;;16.10;73.66;101237.31;6107556;23;20017;-84
2021/06/14 05:03:46;;;;;;;10.00;4.97;;;14.10;99.90;;;16.40;73.37;101230.84;6133510;23;20006;-85
2021/06/14 05:06:12;;;;;;;8.55;4.20;;;14.40;99.90;;;16.69;71.37;101238.50;6134064;23;20006;-86
2021/06/14 05:08:38;;;;;;;13.27;5.05;;;14.70;99.90;;;16.94;70.36;101231.09;6120187;23;20009;-83
2021/06/14 05:11:04;;;;;;;10.20;4.38;;;14.80;99.90;;;17.18;69.36;101239.00;6140594;23;20017;-83
2021/06/14 05:13:30;;;;;;;7.28;3.97;;;15.10;99.90;;;17.47;69.22;101236.41;6130894;23;20013;-85
2021/06/14 05:15:56;;;;;;;10.85;3.63;;;15.40;99.90;;;17.77;68.46;101240.75;6107261;23;20034;-85
2021/06/14 05:18:22;;;;;;;4.60;3.25;;;15.60;99.90;;;18.04;67.40;101244.16;6131854;23;20002;-85
2021/06/14 05:20:48;;;;;;;10.77;3.58;;;15.80;99.90;;;18.35;67.13;101242.69;6131532;23;20124;-85
2021/06/14 05:23:14;;;;;;;9.65;3.83;;;16.20;99.90;;;18.60;65.90;101245.66;6107135;23;20006;-84
2021/06/14 05:25:40;;;;;;;6.75;3.63;;;16.40;99.90;;;18.88;65.28;101246.56;6131646;23;20078;-85
2021/06/14 05:28:06;;;;;;;11.18;4.15;;;16.60;99.90;;;19.17;62.99;101250.25;6108259;23;20065;-86
2021/06/14 05:30:33;;;;;;;7.00;3.38;;;16.90;99.90;;;19.51;63.08;101245.06;6132709;23;20009;-86
2021/06/14 05:33:00;;;;;;;6.28;3.17;;;17.20;99.90;;;19.82;61.39;101244.22;6131760;23;20353;-83
2021/06/14 05:35:26;;;;;;;4.72;3.05;;;17.50;99.90;;;20.17;59.94;101253.88;6107414;23;20010;-85
2021/06/14 05:37:52;;;;;;;6.60;3.50;;;17.80;99.90;;;20.49;57.56;101260.28;6133397;23;20329;-86
2021/06/14 05:40:18;;;;;;;4.95;2.88;;;18.10;99.90;;;20.78;57.16;101243.94;6133540;23;20336;-84
2021/06/14 05:42:45;;;;;;;5.13;2.95;;;18.40;99.90;;;21.02;55.67;101254.34;6108281;23;20044;-86
2021/06/14 05:45:15;;;;;;;7.80;2.88;;;18.60;99.90;;;21.22;54.30;101241.28;6107100;23;20006;-86
2021/06/14 05:47:42;;;;;;;6.05;3.00;;;18.90;99.90;;;21.46;51.48;101245.13;6108342;23;20014;-86
2021/06/14 05:50:08;;;;;;;7.65;3.15;;;19.10;99.90;;;21.73;52.50;101248.16;6134100;23;20018;-86
2021/06/14 05:52:34;;;;;;;6.35;3.13;;;19.40;99.90;;;22.05;50.80;101243.00;6107156;23;20400;-86
2021/06/14 05:55:00;;;;;;;8.05;3.13;;;19.60;99.90;;;22.15;49.14;101244.94;6132821;23;20085;-87
2021/06/14 05:57:26;;;;;;;8.02;3.05;;;19.90;99.90;;;22.35;48.63;101243.06;6132537;23;20495;-87
2021/06/14 05:59:52;;;;;;;9.20;3.15;;;20.00;99.90;;;22.50;47.63;101235.97;6106801;23;20006;-85
2021/06/14 06:02:21;;;;;;;5.32;3.00;;;20.20;99.90;;;22.66;46.63;101245.97;6108432;23;20414;-84
2021/06/14 06:04:47;;;;;;;7.30;2.83;;;20.40;99.90;;;22.93;46.14;101239.06;6132716;23;20060;-84
2021/06/14 06:07:14;;;;;;;5.88;2.72;;;20.60;99.90;;;23.13;45.35;101249.78;6144929;23;19994;-79
2021/06/14 06:09:41;;;;;;;8.88;2.80;;;20.80;96.20;;;23.30;45.06;101246.69;6149330;23;20013;-82
2021/06/14 06:12:08;;;;;;;7.72;2.75;;;21.00;94.00;;;23.33;44.33;101250.69;6123847;23;20037;-83
2021/06/14 06:14:34;;;;;;;5.50;2.88;;;21.10;91.60;;;23.83;43.55;101244.97;6151092;23;20030;-81
2021/06/14 06:17:00;;;;;;;8.40;3.00;;;21.40;91.60;;;24.09;42.79;101241.25;6145460;23;20049;-85
2021/06/14 06:19:27;;;;;;;12.55;3.25;;;21.60;90.10;;;24.14;43.08;101241.56;6133099;23;20014;-87
2021/06/14 06:21:53;;;;;;;9.88;3.05;;;21.80;87.00;;;24.41;42.32;101244.31;6131078;23;20037;-85
2021/06/14 06:24:20;;;;;;;7.97;3.35;;;22.00;84.10;;;24.80;42.00;101237.75;6132592;23;20388;-84
2021/06/14 06:26:45;;;;;;;6.05;2.60;;;22.30;83.50;;;24.84;41.13;101243.44;6105893;23;20014;-85
2021/06/14 06:29:11;;;;;;;4.70;3.05;;;22.40;79.00;;;24.57;40.20;101241.53;6105886;23;20124;-85
2021/06/14 06:31:37;;;;;;;7.55;2.78;;;22.50;73.90;;;24.55;40.33;101238.31;6132272;23;20487;-85
2021/06/14 06:34:03;;;;;;;5.60;2.63;;;22.50;72.40;;;24.72;41.29;101224.91;6130696;23;20029;-87
2021/06/14 06:36:29;;;;;;;5.20;2.50;;;22.60;75.60;;;24.85;40.17;101230.78;6130327;23;20010;-83
2021/06/14 06:38:56;;;;;;;6.50;2.80;;;22.60;72.80;;;24.72;40.06;101242.03;6132180;23;20002;-83
2021/06/14 06:41:27;;;;;;;3.83;2.22;;;22.70;70.90;;;24.95;38.71;101238.28;6105936;23;20006;-86
2021/06/14 06:43:53;;;;;;;5.50;2.72;;;22.90;68.70;;;24.66;39.87;101236.03;6107203;23;20063;-83
2021/06/14 06:46:19;;;;;;;8.90;2.38;;;22.80;69.00;;;25.00;39.14;101235.72;6106325;23;20134;-87
2021/06/14 06:48:45;;;;;;;6.65;2.50;;;22.90;68.60;;;25.43;38.69;101246.91;6107339;23;20009;-86
2021/06/14 06:51:11;;;;;;;6.30;2.83;;;23.10;68.90;;;25.84;39.34;101246.34;6107018;23;20132;-86
2021/06/14 06:53:39;;;;;;;6.38;2.58;;;23.40;70.70;;;26.41;38.63;101251.31;6133565;23;20289;-85
2021/06/14 06:56:06;;;;;;;6.25;2.50;;;23.70;69.90;;;26.67;36.51;101253.03;6107326;23;20069;-86
2021/06/14 06:58:32;;;;;;;7.03;2.75;;;24.00;65.10;;;26.82;35.99;101249.75;6106877;23;20006;-86
2021/06/14 07:00:58;;;;;;;6.55;2.55;;;24.20;63.80;;;27.25;35.80;101250.03;6108157;23;20085;-87
2021/06/14 07:03:25;;;;;;;5.40;2.60;;;24.40;63.30;;;27.29;36.82;101255.66;6109229;23;20005;-84
2021/06/14 07:05:51;;;;;;;5.28;2.88;;;24.60;64.70;;;27.13;35.21;101253.69;6134389;23;20009;-83
2021/06/14 07:08:17;;;;;;;3.65;2.17;;;24.70;60.20;;;27.48;34.98;101251.78;6130368;23;20204;-85
2021/06/14 07:10:44;;;;;;;6.30;2.72;;;24.90;60.20;;;27.01;34.83;101254.47;6134581;23;20036;-85
2021/06/14 07:13:12;;;;;;;7.25;2.60;;;24.90;58.80;;;27.38;34.36;101256.56;6133475;23;20010;-87
2021/06/14 07:15:38;;;;;;;6.07;2.47;;;25.00;58.70;;;26.86;36.39;101245.50;6132573;23;20014;-89
2021/06/14 07:18:04;;;;;;;5.57;2.30;;;24.80;60.20;;;27.23;35.17;101241.06;6132156;23;20348;-87
2021/06/14 07:20:31;;;;;;;5.60;2.47;;;24.90;59.00;;;27.13;34.47;101240.13;6132593;23;20006;-85
2021/06/14 07:22:58;;;;;;;4.97;2.58;;;24.90;58.00;;;27.61;34.46;101236.13;6108512;23;20018;-85
2021/06/14 07:25:25;;;;;;;11.68;2.80;;;25.10;58.60;;;27.51;35.31;101237.31;6114396;23;20005;-79
2021/06/14 07:27:51;;;;;;;6.72;2.55;;;25.00;59.60;;;27.77;34.42;101234.41;6151041;23;20041;-85
2021/06/14 07:30:18;;;;;;;3.80;2.28;;;25.30;58.00;;;27.53;34.31;101237.63;6132901;23;20010;-85
2021/06/14 07:32:44;;;;;;;7.75;2.53;;;25.30;57.20;;;27.53;35.12;101222.50;6131662;23;20111;-86
2021/06/14 07:35:12;;;;;;;6.63;2.92;;;25.30;58.10;;;27.81;33.96;101232.97;6130200;23;20448;-85
2021/06/14 07:37:39;;;;;;;6.20;2.50;;;25.50;56.90;;;28.05;33.23;101221.91;6129524;23;20006;-86
2021/06/14 07:40:08;;;;;;;7.22;2.63;;;25.70;56.10;;;27.72;34.12;101227.16;6104960;23;20097;-86
2021/06/14 07:42:36;;;;;;;7.22;2.85;;;25.60;56.40;;;28.47;33.82;101214.63;6128991;23;20016;-86
2021/06/14 07:45:04;;;;;;;5.75;2.90;;;25.90;57.00;;;28.70;33.42;101222.78;6130691;23;20034;-87
2021/06/14 07:47:31;;;;;;;7.93;2.95;;;26.10;56.50;;;28.20;33.26;101218.06;6105033;23;20396;-85
2021/06/14 07:49:59;;;;;;;5.90;2.85;;;26.10;55.20;;;28.37;33.41;101210.06;6131611;23;20017;-84
2021/06/14 07:52:26;;;;;;;6.90;2.72;;;26.20;55.70;;;28.78;32.73;101195.34;6131465;23;20065;-85
2021/06/14 07:54:53;;;;;;;4.88;2.28;;;26.30;55.30;;;29.33;33.80;101200.56;6129008;23;20084;-85
2021/06/14 07:57:18;;;;;;;5.65;2.90;;;26.70;57.00;;;29.16;32.02;101192.16;6131463;23;20002;-87
2021/06/14 07:59:44;;;;;;;5.18;2.47;;;26.80;54.30;;;28.37;32.15;101207.19;6134338;23;20030;-86
2021/06/14 08:02:11;;;;;;;6.38;2.55;;;26.50;53.10;;;28.46;31.79;101204.38;6132473;23;20006;-86
2021/06/14 08:04:36;;;;;;;5.05;2.13;;;26.40;53.20;;;28.89;32.52;101200.69;6108206;23;20021;-87
2021/06/14 08:07:03;;;;;;;5.95;2.60;;;26.50;54.20;;;29.12;31.46;101188.63;6132578;23;20105;-84
2021/06/14 08:09:30;;;;;;;6.95;2.70;;;26.80;52.90;;;28.10;32.15;101189.72;6132696;23;20492;-88
2021/06/14 08:11:59;;;;;;;5.45;2.78;;;26.60;51.90;;;28.77;32.09;101188.00;6117564;23;20010;-86
2021/06/14 08:14:25;;;;;;;7.18;2.72;;;26.70;52.80;;;29.28;31.01;101165.38;6134377;23;20336;-85
2021/06/14 08:16:51;;;;;;;5.10;2.40;;;27.00;52.00;;;29.22;30.27;101175.06;6135580;23;20006;-86
2021/06/14 08:19:34;;;;;;;5.18;2.50;;;27.10;50.80;;;28.65;31.36;101170.81;6155969;23;20002;-88
2021/06/14 08:22:33;;;;;;;6.10;2.67;;;27.00;51.00;;;29.25;30.91;101165.56;6131582;23;20013;-85
2021/06/14 08:25:04;;;;;;;5.05;2.25;;;27.10;51.70;;;29.26;31.30;101155.63;6133240;23;20037;-87
2021/06/14 08:27:39;;;;;;;4.88;2.45;;;27.00;51.90;;;29.47;31.08;101159.69;6158140;23;20095;-84
2021/06/14 08:30:16;;;;;;;7.07;2.28;;;27.20;51.80;;;29.08;31.50;101155.56;6160321;23;20020;-88
2021/06/14 08:32:43;;;;;;;6.38;2.70;;;27.10;51.90;;;29.22;31.20;101163.56;6135402;23;20006;-85
2021/06/14 08:35:16;;;;;;;6.80;3.17;;;27.10;51.50;;;29.33;30.89;101166.03;6159366;23;20083;-87
2021/06/14 08:37:47;;;;;;;5.47;2.55;;;27.10;51.10;;;29.91;30.15;101160.22;6137279;23;20005;-83
2021/06/14 08:40:21;;;;;;;6.72;2.55;;;27.40;50.90;;;30.22;29.62;101160.84;6159200;23;20068;-82
2021/06/14 08:42:49;;;;;;;6.15;2.22;;;27.70;50.20;;;30.83;28.38;101154.66;6161045;23;20310;-86
2021/06/14 08:45:18;;;;;;;4.88;2.38;;;28.10;49.20;;;30.62;29.05;101149.94;6139811;23;20073;-87
2021/06/14 08:47:49;;;;;;;4.65;2.40;;;28.20;49.20;;;30.49;29.69;101160.84;6161061;23;20090;-85
2021/06/14 08:50:19;;;;;;;6.28;2.47;;;28.20;49.80;;;30.83;28.48;101156.72;6135160;23;20038;-89
2021/06/14 08:52:47;;;;;;;6.07;2.45;;;28.40;48.60;;;30.92;28.64;101153.03;6159873;23;20069;-84
2021/06/14 08:55:16;;;;;;;6.55;2.90;;;28.50;48.80;;;30.81;29.20;101142.81;6160290;23;20463;-87
2021/06/14 08:57:43;;;;;;;6.32;2.90;;;28.50;48.80;;;31.28;27.57;101145.00;6136383;23;20006;-84
2021/06/14 09:00:21;;;;;;;6.72;2.70;;;28.60;46.90;;;30.20;28.27;101138.31;6134340;23;20022;-85
2021/06/14 09:02:51;;;;;;;5.28;2.70;;;28.40;47.00;;;29.89;29.50;101125.38;6136564;23;20049;-85
2021/06/14 09:05:21;;;;;;;4.97;2.33;;;28.10;48.00;;;30.98;28.52;101134.59;6138386;23;20006;-85
2021/06/14 09:07:52;;;;;;;7.78;2.25;;;28.50;48.70;;;31.41;28.38;101123.75;6163409;23;20006;-86
2021/06/14 09:10:31;;;;;;;7.43;2.67;;;28.80;48.20;;;32.02;27.61;101125.88;6138530;23;20010;-86
2021/06/14 09:13:20;;;;;;;4.03;2.42;;;29.20;47.80;;;32.17;27.70;101123.81;6163612;23;20072;-84
2021/06/14 09:16:12;;;;;;;5.20;2.40;;;29.50;47.50;;;31.16;28.05;101116.38;6164552;23;20021;-84
2021/06/14 09:18:43;;;;;;;5.25;2.42;;;29.30;45.70;;;31.47;27.81;101118.94;6163688;23;20010;-84
2021/06/14 09:21:18;;;;;;;6.30;2.30;;;29.10;46.90;;;31.65;27.93;101110.97;6162388;23;20021;-84
2021/06/14 09:23:53;;;;;;;5.97;2.42;;;29.30;46.90;;;32.22;26.81;101108.69;6163245;23;20016;-83
2021/06/14 09:26:44;;;;;;;7.88;2.20;;;29.50;46.40;;;31.82;27.17;101105.53;6165624;23;20049;-84
2021/06/14 09:29:15;;;;;;;3.95;1.98;;;29.30;46.00;;;32.09;26.05;101108.19;6138437;23;20010;-83
2021/06/14 09:32:00;;;;;;;5.18;2.42;;;29.40;45.20;;;31.22;26.92;101088.44;6140226;23;20006;-86
2021/06/14 09:34:38;;;;;;;4.13;2.50;;;29.20;45.30;;;31.57;26.50;101089.50;6162927;23;20464;-84
2021/06/14 09:37:10;;;;;;;4.88;2.47;;;29.30;45.00;;;31.91;25.79;101085.22;6163171;23;20010;-85
2021/06/14 09:39:39;;;;;;;4.93;2.15;;;29.40;44.70;;;31.17;25.54;101081.28;6163874;23;20010;-84
2021/06/14 09:42:26;;;;;;;4.15;2.15;;;29.30;43.00;;;32.05;26.47;101077.88;6160335;23;20087;-83
2021/06/14 09:45:04;;;;;;;5.45;2.53;;;29.40;45.60;;;31.94;25.48;101078.44;6144445;23;20037;-82
2021/06/14 09:47:31;;;;;;;40.08;6.70;;;29.60;44.00;;;32.01;26.65;101065.69;6150286;23;20034;-85
2021/06/14 09:50:17;;;;;;;4.88;2.10;;;29.50;45.60;;;31.46;26.63;101051.72;6164710;23;20006;-86
2021/06/14 09:52:43;;;;;;;16.27;5.32;;;29.40;44.50;;;31.38;27.59;101049.69;6139328;23;20092;-86
2021/06/14 09:55:16;;;;;;;9.10;2.85;;;29.30;45.50;;;30.94;27.50;101047.41;6139559;23;20010;-85
2021/06/14 09:57:43;;;;;;;5.35;2.78;;;29.00;46.00;;;31.52;27.91;101054.75;6162591;23;20032;-83
2021/06/14 10:00:16;;;;;;;5.30;2.42;;;29.20;47.10;;;32.31;26.09;101056.56;6137218;23;20047;-84
2021/06/14 10:02:44;;;;;;;4.93;2.20;;;29.60;45.90;;;31.48;26.97;101054.91;6163019;23;20009;-84
2021/06/14 10:05:29;;;;;;;5.05;2.50;;;29.50;44.50;;;32.04;25.59;101059.75;6162639;23;20074;-84
2021/06/14 10:07:55;;;;;;;4.50;2.40;;;29.60;44.40;;;32.01;27.44;101057.03;6138103;23;20096;-85
2021/06/14 10:10:29;;;;;;;5.03;2.30;;;29.60;46.40;;;32.27;26.45;101058.06;6134538;23;20100;-85
2021/06/14 10:12:58;;;;;;;6.43;2.42;;;29.70;45.50;;;32.16;26.84;101058.66;6162005;23;20116;-87
2021/06/14 10:15:35;;;;;;;4.60;2.40;;;29.80;45.70;;;32.66;25.11;101058.72;6139399;23;20414;-84
2021/06/14 10:18:04;;;;;;;7.28;2.25;;;30.10;44.20;;;32.80;25.82;101064.50;6138258;23;19998;-87
2021/06/14 10:20:32;;;;;;;6.07;2.50;;;30.20;45.00;;;32.63;25.51;101056.84;6136914;23;20172;-84
2021/06/14 10:23:01;;;;;;;3.25;2.08;;;30.20;43.50;;;32.09;25.13;101067.72;6161278;23;20014;-83
2021/06/14 10:25:27;;;;;;;6.00;2.53;;;30.00;42.40;;;32.60;26.35;101063.63;6134947;23;20010;-85